Gardena, California
Current Conditions -  °F | °C
As of 12:53 PM on Thursday 27 Nov 2014 (Local Time) from KHHR Reporting Station
Clear Clear  
Wind Chill: 89°   Ceiling: Unl
Heat Index: 89°   Visibility: 10mi
Dew Point: 19°   Wind: 0mph
Humidity: 8%   Direction: NA
Pressure: 30.02"   Gusts: NA
Location:  33.88°N, 118.3°W
Report Text: KHHR 272053Z 00000KT 10SM CLR 32/M07 A3002 RMK AO2 SLP166 T03171072 58028
Loading
Personal Weather Stations






























Interactive Weather Map New forecast layout! Learn more

10-Day Weather Forecast

Advertisements
Track Severe Weather on mobile